Time;durP1;ratioP1;P1;durP2;ratioP2;P2;SDS_P1;SDS_P2;PMS_P1;PMS_P2;Temp;Humidity;BMP_temperature;BMP_pressure;BME280_temperature;BME280_humidity;BME280_pressure;Samples;Min_cycle;Max_cycle;Signal;HPM_P1;HPM_P2
2022/05/29 00:02:13;;;;;;;;;;;6.60;99.90;;;;;;5085315;28;19910;-49
2022/05/29 00:04:39;;;;;;;;;;;6.60;99.90;;;;;;5086684;28;19908;-49
2022/05/29 00:07:06;;;;;;;;;;;6.50;99.90;;;;;;5073159;28;19904;-48
2022/05/29 00:09:34;;;;;;;;;;;6.50;99.90;;;;;;5073879;28;19905;-47
2022/05/29 00:12:00;;;;;;;;;;;6.50;99.90;;;;;;5088865;28;19918;-50
2022/05/29 00:14:26;;;;;;;;;;;6.40;99.90;;;;;;5084849;28;19911;-50
2022/05/29 00:16:52;;;;;;;;;;;6.40;99.90;;;;;;5090622;28;19912;-47
2022/05/29 00:19:17;;;;;;;;;;;6.40;99.90;;;;;;5089432;28;19911;-48
2022/05/29 00:21:43;;;;;;;;;;;6.40;99.90;;;;;;5071323;28;19908;-53
2022/05/29 00:24:09;;;;;;;;;;;6.30;99.90;;;;;;5081551;28;19916;-49
2022/05/29 00:26:34;;;;;;;;;;;6.40;99.90;;;;;;5092896;28;19928;-48
2022/05/29 00:29:00;;;;;;;;;;;6.40;99.90;;;;;;5090169;28;20010;-47
2022/05/29 00:31:26;;;;;;;;;;;6.50;99.90;;;;;;5091905;28;20285;-49
2022/05/29 00:33:51;;;;;;;;;;;6.50;99.90;;;;;;5084805;28;19915;-51
2022/05/29 00:36:17;;;;;;;;;;;6.60;99.90;;;;;;5087444;28;19951;-49
2022/05/29 00:38:44;;;;;;;;;;;6.60;99.90;;;;;;5089617;28;19974;-48
2022/05/29 00:41:19;;;;;;;;;;;6.70;99.90;;;;;;5088722;28;20466;-48
2022/05/29 00:44:04;;;;;;;;;;;6.80;99.90;;;;;;5084216;28;19908;-53
2022/05/29 00:46:30;;;;;;;;;;;6.80;99.90;;;;;;5069754;28;19916;-50
2022/05/29 00:48:55;;;;;;;;;;;6.80;99.90;;;;;;5070987;28;19912;-47
2022/05/29 00:51:23;;;;;;;;;;;6.80;99.90;;;;;;5070340;28;19900;-53
2022/05/29 00:53:49;;;;;;;;;;;6.90;99.90;;;;;;5076264;28;19908;-51
2022/05/29 00:56:14;;;;;;;;;;;7.00;99.90;;;;;;5070768;28;19915;-48
2022/05/29 00:58:40;;;;;;;;;;;7.00;99.90;;;;;;5069445;28;20007;-48
2022/05/29 01:01:06;;;;;;;;;;;7.10;99.90;;;;;;5069117;28;20465;-49
2022/05/29 01:03:32;;;;;;;;;;;7.10;99.90;;;;;;5076049;28;19999;-51
2022/05/29 01:05:57;;;;;;;;;;;7.10;99.90;;;;;;5077060;28;19904;-47
2022/05/29 01:08:26;;;;;;;;;;;7.10;99.90;;;;;;5071515;28;20274;-48
2022/05/29 01:10:57;;;;;;;;;;;7.10;99.90;;;;;;5073260;28;20003;-50
2022/05/29 01:13:42;;;;;;;;;;;7.10;99.90;;;;;;5085373;28;19908;-53
2022/05/29 01:16:14;;;;;;;;;;;7.20;99.90;;;;;;5082312;28;19919;-50
2022/05/29 01:18:47;;;;;;;;;;;7.20;99.90;;;;;;5070517;28;19908;-50
2022/05/29 01:21:51;;;;;;;;;;;7.20;99.90;;;;;;5069490;28;19904;-50
2022/05/29 01:24:16;;;;;;;;;;;7.10;99.90;;;;;;5086423;28;19916;-47
2022/05/29 01:26:57;;;;;;;;;;;7.10;99.90;;;;;;5076293;28;19957;-50
2022/05/29 01:29:41;;;;;;;;;;;7.00;99.90;;;;;;5066160;28;19940;-52
2022/05/29 01:32:18;;;;;;;;;;;7.00;99.90;;;;;;5091547;28;19908;-51
2022/05/29 01:34:44;;;;;;;;;;;6.90;99.90;;;;;;5071609;28;19956;-53
2022/05/29 01:37:20;;;;;;;;;;;6.90;99.90;;;;;;5087041;28;19955;-48
2022/05/29 01:39:49;;;;;;;;;;;6.90;99.90;;;;;;5063638;28;19909;-48
2022/05/29 01:42:33;;;;;;;;;;;6.90;99.90;;;;;;5072463;28;19909;-50
2022/05/29 01:45:04;;;;;;;;;;;6.80;99.90;;;;;;5070625;28;19908;-48
2022/05/29 01:47:48;;;;;;;;;;;6.80;99.90;;;;;;5086784;28;19912;-49
2022/05/29 01:50:20;;;;;;;;;;;6.80;99.90;;;;;;5091436;28;19958;-48
2022/05/29 01:52:48;;;;;;;;;;;6.80;99.90;;;;;;5089540;28;19908;-50
2022/05/29 01:55:21;;;;;;;;;;;6.70;99.90;;;;;;5091443;28;19915;-49
2022/05/29 01:57:48;;;;;;;;;;;6.70;99.90;;;;;;5070482;28;19938;-47
2022/05/29 02:00:21;;;;;;;;;;;6.60;99.90;;;;;;5070996;28;19911;-48
2022/05/29 02:02:51;;;;;;;;;;;6.70;99.90;;;;;;5069629;28;20623;-48
2022/05/29 02:05:23;;;;;;;;;;;6.70;99.90;;;;;;5071853;28;20311;-48
2022/05/29 02:07:52;;;;;;;;;;;6.70;99.90;;;;;;5086464;28;19909;-47
2022/05/29 02:10:28;;;;;;;;;;;6.60;99.90;;;;;;5074106;28;20272;-48
2022/05/29 02:12:57;;;;;;;;;;;6.70;99.90;;;;;;5078363;28;19915;-48
2022/05/29 02:15:28;;;;;;;;;;;6.60;99.90;;;;;;5089842;28;19908;-52
2022/05/29 02:17:55;;;;;;;;;;;6.60;99.90;;;;;;5069991;28;20344;-49
2022/05/29 02:20:29;;;;;;;;;;;6.50;99.90;;;;;;5070893;28;19916;-52
2022/05/29 02:22:59;;;;;;;;;;;6.50;99.90;;;;;;5090430;28;20318;-48
2022/05/29 02:25:27;;;;;;;;;;;6.60;99.90;;;;;;5094791;28;19908;-48
2022/05/29 02:27:55;;;;;;;;;;;6.50;99.90;;;;;;5089049;28;20279;-52
2022/05/29 02:30:23;;;;;;;;;;;6.50;99.90;;;;;;5073877;28;19931;-49
2022/05/29 02:32:48;;;;;;;;;;;6.50;99.90;;;;;;5078170;28;20003;-49
2022/05/29 02:35:20;;;;;;;;;;;6.50;99.90;;;;;;5093040;28;20633;-50
2022/05/29 02:37:49;;;;;;;;;;;6.50;99.90;;;;;;5093680;28;20302;-49
2022/05/29 02:40:33;;;;;;;;;;;6.40;99.90;;;;;;5091275;28;19915;-50
2022/05/29 02:42:58;;;;;;;;;;;6.40;99.90;;;;;;5073495;28;20534;-47
2022/05/29 02:45:46;;;;;;;;;;;6.40;99.90;;;;;;5083442;28;19960;-49
2022/05/29 02:48:14;;;;;;;;;;;6.40;99.90;;;;;;5086302;28;19916;-47
2022/05/29 02:50:48;;;;;;;;;;;6.50;99.90;;;;;;5093189;28;19947;-50
2022/05/29 02:53:15;;;;;;;;;;;6.50;99.90;;;;;;5083651;28;19943;-47
2022/05/29 02:55:41;;;;;;;;;;;6.50;99.90;;;;;;5093906;28;20061;-49
2022/05/29 02:58:18;;;;;;;;;;;6.50;99.90;;;;;;5093305;28;19908;-47
2022/05/29 03:00:58;;;;;;;;;;;6.50;99.90;;;;;;5092486;28;20363;-49
2022/05/29 03:03:35;;;;;;;;;;;6.50;99.90;;;;;;5072924;28;19952;-50
2022/05/29 03:06:07;;;;;;;;;;;6.60;99.90;;;;;;5073471;28;20003;-47
2022/05/29 03:08:46;;;;;;;;;;;6.50;99.90;;;;;;5074105;28;20403;-48
2022/05/29 03:11:30;;;;;;;;;;;6.50;99.90;;;;;;5080922;28;19916;-50
2022/05/29 03:14:06;;;;;;;;;;;6.50;99.90;;;;;;5074844;28;19912;-55
2022/05/29 03:16:37;;;;;;;;;;;6.50;99.90;;;;;;5073290;28;19915;-49
2022/05/29 03:19:12;;;;;;;;;;;6.50;99.90;;;;;;5074911;28;19923;-49
2022/05/29 03:21:40;;;;;;;;;;;6.50;99.90;;;;;;5079525;28;19908;-49
2022/05/29 03:24:15;;;;;;;;;;;6.50;99.90;;;;;;5091634;28;19916;-48
2022/05/29 03:26:43;;;;;;;;;;;6.50;99.90;;;;;;5093242;28;19904;-48
2022/05/29 03:29:12;;;;;;;;;;;6.40;99.90;;;;;;5093630;28;19908;-48
2022/05/29 03:31:39;;;;;;;;;;;6.30;99.90;;;;;;5085301;28;19961;-48
2022/05/29 03:34:06;;;;;;;;;;;6.40;99.90;;;;;;5088390;28;19912;-48
2022/05/29 03:36:31;;;;;;;;;;;6.40;99.90;;;;;;5083123;28;19965;-49
2022/05/29 03:38:57;;;;;;;;;;;6.50;99.90;;;;;;5073160;28;20301;-48
2022/05/29 03:41:27;;;;;;;;;;;6.60;99.90;;;;;;5073473;28;19905;-49
2022/05/29 03:43:52;;;;;;;;;;;6.70;99.90;;;;;;5074285;28;19962;-48
2022/05/29 03:46:18;;;;;;;;;;;6.80;99.90;;;;;;5081435;28;19940;-48
2022/05/29 03:48:43;;;;;;;;;;;6.80;99.90;;;;;;5070911;28;19908;-55
2022/05/29 03:51:09;;;;;;;;;;;6.90;99.90;;;;;;5072204;28;19904;-47
2022/05/29 03:53:34;;;;;;;;;;;6.90;99.90;;;;;;5072239;28;20527;-51
2022/05/29 03:56:00;;;;;;;;;;;7.00;99.90;;;;;;5077161;28;19912;-51
2022/05/29 03:58:26;;;;;;;;;;;7.00;99.90;;;;;;5091691;28;19915;-49
2022/05/29 04:00:51;;;;;;;;;;;7.10;99.90;;;;;;5092873;28;19991;-48
2022/05/29 04:03:17;;;;;;;;;;;7.10;99.90;;;;;;5092867;28;19908;-47
2022/05/29 04:05:43;;;;;;;;;;;7.10;99.90;;;;;;5090583;28;19935;-53
2022/05/29 04:13:41;;;;;;;;;;;7.30;99.90;;;;;;5089699;28;20002;-49
2022/05/29 04:16:06;;;;;;;;;;;7.40;99.90;;;;;;5076967;28;19917;-50
2022/05/29 04:18:32;;;;;;;;;;;7.50;99.90;;;;;;5090542;28;19915;-47
2022/05/29 04:20:57;;;;;;;;;;;7.60;99.90;;;;;;5091049;28;20389;-48
2022/05/29 04:23:23;;;;;;;;;;;7.60;99.90;;;;;;5089276;28;19916;-48
2022/05/29 04:25:49;;;;;;;;;;;7.70;99.90;;;;;;5089441;28;19998;-48
2022/05/29 04:28:15;;;;;;;;;;;7.70;99.90;;;;;;5090765;28;20363;-49
2022/05/29 04:30:40;;;;;;;;;;;7.80;99.90;;;;;;5091022;28;19912;-47
2022/05/29 04:33:06;;;;;;;;;;;7.80;99.90;;;;;;5091326;28;19915;-48
2022/05/29 04:35:42;;;;;;;;;;;7.90;99.90;;;;;;5090015;28;20003;-47
2022/05/29 04:38:08;;;;;;;;;;;8.00;99.90;;;;;;5070930;28;19916;-47
2022/05/29 04:40:36;;;;;;;;;;;8.10;99.90;;;;;;5071228;28;20287;-49
2022/05/29 04:43:01;;;;;;;;;;;8.20;99.90;;;;;;5072828;28;19912;-51
2022/05/29 04:45:27;;;;;;;;;;;8.30;99.90;;;;;;5071795;28;19904;-48
2022/05/29 04:47:53;;;;;;;;;;;8.40;99.90;;;;;;5059272;28;19943;-49
2022/05/29 04:50:19;;;;;;;;;;;8.40;99.90;;;;;;5091211;28;19943;-47
2022/05/29 04:52:45;;;;;;;;;;;8.50;99.90;;;;;;5091755;28;19986;-50
2022/05/29 04:55:10;;;;;;;;;;;8.60;99.90;;;;;;5092554;28;19904;-49
2022/05/29 04:57:36;;;;;;;;;;;8.80;99.90;;;;;;5073844;28;19916;-47
2022/05/29 05:00:03;;;;;;;;;;;8.80;99.90;;;;;;5071563;28;19911;-48
2022/05/29 05:02:29;;;;;;;;;;;9.00;99.90;;;;;;5071507;28;19946;-49
2022/05/29 05:04:54;;;;;;;;;;;9.20;99.90;;;;;;5081568;28;19947;-51
2022/05/29 05:07:20;;;;;;;;;;;9.20;99.90;;;;;;5090636;28;19908;-49
2022/05/29 05:09:46;;;;;;;;;;;9.30;99.90;;;;;;5089684;28;19916;-48
2022/05/29 05:12:12;;;;;;;;;;;9.30;99.90;;;;;;5073721;28;19943;-49
2022/05/29 05:14:37;;;;;;;;;;;9.40;99.90;;;;;;5073947;28;19916;-50
2022/05/29 05:17:03;;;;;;;;;;;9.40;99.90;;;;;;5078618;28;19924;-50
2022/05/29 05:19:29;;;;;;;;;;;9.50;99.90;;;;;;5075128;28;19908;-50
2022/05/29 05:21:55;;;;;;;;;;;9.50;99.90;;;;;;5091243;28;19961;-48
2022/05/29 05:24:21;;;;;;;;;;;9.50;99.90;;;;;;5090394;28;20332;-47
2022/05/29 05:26:47;;;;;;;;;;;9.60;99.90;;;;;;5081338;28;20287;-49
2022/05/29 05:29:14;;;;;;;;;;;9.60;99.90;;;;;;5071838;28;19908;-48
2022/05/29 05:31:40;;;;;;;;;;;9.60;99.90;;;;;;5070281;28;19915;-50
2022/05/29 05:34:05;;;;;;;;;;;9.70;99.90;;;;;;5070081;28;20295;-47
2022/05/29 05:36:31;;;;;;;;;;;9.80;99.90;;;;;;5078508;28;19943;-49
2022/05/29 05:38:56;;;;;;;;;;;9.90;99.90;;;;;;5090187;28;20015;-48
2022/05/29 05:41:22;;;;;;;;;;;10.00;99.90;;;;;;5090083;28;19977;-50
2022/05/29 05:43:48;;;;;;;;;;;9.90;99.90;;;;;;5090047;28;19953;-48
2022/05/29 05:46:14;;;;;;;;;;;10.00;99.90;;;;;;5086334;28;20451;-50
2022/05/29 05:48:40;;;;;;;;;;;10.10;99.90;;;;;;5071558;28;19939;-49
2022/05/29 05:51:06;;;;;;;;;;;10.20;99.90;;;;;;5082548;28;19908;-50
2022/05/29 05:53:32;;;;;;;;;;;10.20;99.90;;;;;;5078546;28;19938;-48
2022/05/29 05:55:58;;;;;;;;;;;10.30;99.90;;;;;;5073330;28;20354;-50
2022/05/29 05:58:23;;;;;;;;;;;10.30;99.90;;;;;;5094390;28;19943;-48
2022/05/29 06:00:49;;;;;;;;;;;10.30;99.90;;;;;;5094720;28;19916;-48
2022/05/29 06:03:15;;;;;;;;;;;10.40;99.90;;;;;;5094894;28;19954;-49
2022/05/29 06:05:41;;;;;;;;;;;10.50;99.90;;;;;;5095172;28;19950;-48
2022/05/29 06:08:07;;;;;;;;;;;10.70;99.90;;;;;;5077015;28;19935;-51
2022/05/29 06:10:32;;;;;;;;;;;10.70;99.90;;;;;;5072126;28;19905;-50
2022/05/29 06:13:05;;;;;;;;;;;10.90;99.90;;;;;;5077455;28;19908;-49
2022/05/29 06:15:31;;;;;;;;;;;11.00;99.90;;;;;;5094317;28;19903;-48
2022/05/29 06:17:57;;;;;;;;;;;11.00;99.90;;;;;;5083125;28;20409;-48
2022/05/29 06:20:24;;;;;;;;;;;11.10;99.90;;;;;;5093864;28;19999;-48
2022/05/29 06:22:50;;;;;;;;;;;11.20;99.90;;;;;;5078996;28;19920;-53
2022/05/29 06:25:15;;;;;;;;;;;11.30;99.90;;;;;;5073761;28;19933;-48
2022/05/29 06:27:43;;;;;;;;;;;11.30;99.90;;;;;;5089603;28;19998;-50
2022/05/29 06:30:10;;;;;;;;;;;11.30;99.90;;;;;;5094928;28;19944;-52
2022/05/29 06:32:36;;;;;;;;;;;11.40;99.90;;;;;;5094882;28;20271;-49
2022/05/29 06:35:02;;;;;;;;;;;11.50;99.90;;;;;;5094960;28;19907;-49
2022/05/29 06:37:29;;;;;;;;;;;11.60;99.90;;;;;;5080408;28;20295;-50
2022/05/29 06:39:55;;;;;;;;;;;11.70;99.90;;;;;;5074661;28;20027;-49
2022/05/29 06:42:21;;;;;;;;;;;11.80;99.90;;;;;;5075628;28;20398;-54
2022/05/29 06:44:46;;;;;;;;;;;11.90;99.90;;;;;;5074674;28;20443;-51
2022/05/29 06:47:14;;;;;;;;;;;12.10;99.90;;;;;;5083413;28;21632;-52
2022/05/29 06:49:40;;;;;;;;;;;12.40;99.90;;;;;;5054501;28;20423;-51
2022/05/29 06:52:07;;;;;;;;;;;12.30;99.90;;;;;;5074874;28;20007;-50
2022/05/29 06:54:33;;;;;;;;;;;12.40;99.90;;;;;;5094007;28;20053;-48
2022/05/29 06:56:58;;;;;;;;;;;12.50;99.90;;;;;;5084306;28;19931;-51
2022/05/29 06:59:24;;;;;;;;;;;12.30;99.90;;;;;;5073641;28;20272;-53
2022/05/29 07:07:18;;;;;;;;;;;12.10;99.90;;;;;;5065860;28;19915;-50
2022/05/29 07:09:43;;;;;;;;;;;12.10;99.90;;;;;;5073024;28;19908;-51
2022/05/29 07:12:10;;;;;;;;;;;12.10;99.90;;;;;;5087189;28;19916;-52
2022/05/29 07:14:53;;;;;;;;;;;12.10;99.90;;;;;;5092298;28;19908;-49
2022/05/29 07:17:18;;;;;;;;;;;12.40;99.90;;;;;;5085985;28;19969;-50
2022/05/29 07:19:45;;;;;;;;;;;12.30;99.90;;;;;;5079039;28;19909;-55
2022/05/29 07:22:11;;;;;;;;;;;12.40;99.90;;;;;;5072927;28;20272;-50
2022/05/29 07:24:38;;;;;;;;;;;12.40;99.90;;;;;;5079230;28;20263;-54
2022/05/29 07:27:04;;;;;;;;;;;12.50;99.90;;;;;;5082091;28;19916;-51
2022/05/29 07:29:30;;;;;;;;;;;12.40;99.90;;;;;;5073863;28;20272;-47
2022/05/29 07:31:56;;;;;;;;;;;12.30;99.90;;;;;;5073486;28;19905;-49
2022/05/29 07:34:23;;;;;;;;;;;12.30;99.90;;;;;;5073384;28;19944;-50
2022/05/29 07:36:51;;;;;;;;;;;12.40;99.90;;;;;;5080203;28;20386;-51
2022/05/29 07:39:16;;;;;;;;;;;12.40;99.90;;;;;;5092652;28;19915;-48
2022/05/29 07:44:26;;;;;;;;;;;12.50;99.90;;;;;;5093024;28;20366;-50
2022/05/29 07:46:51;;;;;;;;;;;12.60;99.90;;;;;;5090006;28;19908;-49
2022/05/29 07:49:17;;;;;;;;;;;12.70;99.90;;;;;;5092109;28;20344;-49
2022/05/29 07:51:43;;;;;;;;;;;12.70;99.90;;;;;;5093249;28;19908;-53
2022/05/29 07:54:08;;;;;;;;;;;12.80;99.90;;;;;;5092120;28;20453;-50
2022/05/29 07:56:34;;;;;;;;;;;12.70;99.90;;;;;;5083483;28;20343;-49
2022/05/29 07:58:59;;;;;;;;;;;12.80;99.90;;;;;;5072656;28;19995;-54
2022/05/29 08:01:25;;;;;;;;;;;12.80;99.90;;;;;;5071629;28;19939;-52
2022/05/29 08:03:50;;;;;;;;;;;12.90;99.90;;;;;;5071624;28;20257;-50
2022/05/29 08:06:16;;;;;;;;;;;12.90;99.90;;;;;;5070395;28;19939;-52
2022/05/29 08:08:42;;;;;;;;;;;12.70;99.90;;;;;;5065148;28;19916;-51
2022/05/29 08:11:08;;;;;;;;;;;12.90;99.90;;;;;;5069840;28;19904;-54
2022/05/29 08:13:35;;;;;;;;;;;13.00;99.90;;;;;;5070619;28;19943;-54
2022/05/29 08:16:02;;;;;;;;;;;13.00;99.90;;;;;;5070542;28;19905;-54
2022/05/29 08:18:28;;;;;;;;;;;13.40;99.90;;;;;;5071340;28;19911;-56
2022/05/29 08:20:53;;;;;;;;;;;13.40;99.90;;;;;;5071074;28;20344;-54
2022/05/29 08:23:19;;;;;;;;;;;13.40;99.90;;;;;;5071319;28;19920;-53
2022/05/29 08:31:13;;;;;;;;;;;13.60;99.90;;;;;;5071688;28;20326;-48
2022/05/29 08:33:39;;;;;;;;;;;13.50;99.90;;;;;;5071441;28;19908;-47
2022/05/29 08:36:06;;;;;;;;;;;13.50;99.90;;;;;;5070991;28;19962;-53
2022/05/29 08:38:33;;;;;;;;;;;13.40;99.90;;;;;;5071624;28;19911;-51
2022/05/29 08:41:03;;;;;;;;;;;13.40;99.90;;;;;;5071720;28;19905;-52
2022/05/29 08:43:29;;;;;;;;;;;13.40;99.90;;;;;;5071330;28;19904;-53
2022/05/29 08:45:54;;;;;;;;;;;13.40;99.90;;;;;;5071174;28;20328;-53
2022/05/29 08:48:24;;;;;;;;;;;13.30;99.90;;;;;;5071279;28;19904;-55
2022/05/29 08:50:56;;;;;;;;;;;13.50;99.90;;;;;;5071095;28;20438;-48
2022/05/29 08:53:34;;;;;;;;;;;13.60;99.90;;;;;;5070993;28;20333;-53
2022/05/29 08:56:05;;;;;;;;;;;13.70;99.90;;;;;;5070728;28;19905;-54
2022/05/29 08:58:49;;;;;;;;;;;14.10;99.90;;;;;;5067077;28;19904;-56
2022/05/29 09:01:21;;;;;;;;;;;14.20;99.90;;;;;;5065793;28;19904;-56
2022/05/29 09:03:51;;;;;;;;;;;14.10;99.90;;;;;;5063252;28;19915;-48
2022/05/29 09:06:27;;;;;;;;;;;14.00;99.90;;;;;;5065035;28;19905;-49
2022/05/29 09:08:55;;;;;;;;;;;13.90;99.90;;;;;;5069877;28;19904;-51
2022/05/29 09:11:26;;;;;;;;;;;13.70;99.90;;;;;;5071756;28;19905;-50
2022/05/29 09:13:54;;;;;;;;;;;13.70;99.90;;;;;;5071175;28;20394;-49
2022/05/29 09:16:20;;;;;;;;;;;13.70;99.90;;;;;;5071628;28;19918;-49
2022/05/29 09:19:08;;;;;;;;;;;13.80;99.90;;;;;;5071584;28;19951;-51
2022/05/29 09:21:56;;;;;;;;;;;13.70;99.90;;;;;;5070845;28;19904;-52
2022/05/29 09:24:41;;;;;;;;;;;13.60;99.90;;;;;;5073746;28;19916;-50
2022/05/29 09:27:08;;;;;;;;;;;13.60;99.90;;;;;;5071453;28;19995;-51
2022/05/29 09:29:36;;;;;;;;;;;13.70;99.90;;;;;;5071239;28;20325;-49
2022/05/29 09:32:04;;;;;;;;;;;13.90;99.90;;;;;;5074975;28;19912;-52
2022/05/29 09:34:29;;;;;;;;;;;13.60;99.90;;;;;;5075583;28;19990;-54
2022/05/29 09:37:07;;;;;;;;;;;13.70;99.90;;;;;;5075301;28;20357;-50
2022/05/29 09:39:41;;;;;;;;;;;13.90;99.90;;;;;;5075266;28;19994;-52
2022/05/29 09:42:12;;;;;;;;;;;14.10;99.90;;;;;;5075303;28;19911;-51
2022/05/29 09:44:38;;;;;;;;;;;14.10;99.90;;;;;;5075948;28;19966;-50
2022/05/29 09:50:10;;;;;;;;;;;14.10;99.90;;;;;;5079089;28;20001;-54
2022/05/29 09:52:38;;;;;;;;;;;14.20;99.90;;;;;;5075377;28;19908;-54
2022/05/29 09:55:05;;;;;;;;;;;14.40;99.90;;;;;;5073739;28;19905;-49
2022/05/29 09:57:33;;;;;;;;;;;14.50;99.90;;;;;;5075296;28;20283;-52
2022/05/29 10:00:01;;;;;;;;;;;14.50;99.90;;;;;;5075145;28;19947;-55
2022/05/29 10:02:31;;;;;;;;;;;14.70;99.90;;;;;;5075160;28;20322;-54
2022/05/29 10:05:00;;;;;;;;;;;14.70;99.90;;;;;;5074629;28;19905;-55
2022/05/29 10:07:31;;;;;;;;;;;14.70;99.70;;;;;;5075651;28;20248;-56
2022/05/29 10:09:57;;;;;;;;;;;14.80;99.90;;;;;;5075307;28;20442;-55
2022/05/29 10:12:32;;;;;;;;;;;14.90;99.90;;;;;;5075359;28;20007;-56
2022/05/29 10:14:57;;;;;;;;;;;14.70;99.90;;;;;;5074907;28;19908;-55
2022/05/29 10:17:29;;;;;;;;;;;14.30;99.90;;;;;;5074891;28;20058;-55
2022/05/29 10:19:54;;;;;;;;;;;14.50;99.90;;;;;;5089179;28;19916;-55
2022/05/29 10:22:29;;;;;;;;;;;14.30;99.90;;;;;;5095206;28;19915;-55
2022/05/29 10:24:55;;;;;;;;;;;14.20;99.90;;;;;;5095014;28;19911;-55
2022/05/29 10:27:27;;;;;;;;;;;14.40;99.90;;;;;;5095417;28;20301;-54
2022/05/29 10:29:57;;;;;;;;;;;14.60;99.90;;;;;;5080298;28;20270;-55
2022/05/29 10:32:26;;;;;;;;;;;14.60;99.90;;;;;;5090200;28;20347;-54
2022/05/29 10:34:53;;;;;;;;;;;14.90;99.90;;;;;;5058668;28;19915;-54
2022/05/29 10:37:35;;;;;;;;;;;15.00;99.90;;;;;;5076803;28;19952;-54
2022/05/29 10:40:10;;;;;;;;;;;15.00;99.90;;;;;;5046580;28;19955;-53
2022/05/29 10:42:44;;;;;;;;;;;15.00;99.60;;;;;;5042980;28;19995;-50
2022/05/29 10:45:20;;;;;;;;;;;15.00;99.90;;;;;;5043800;28;19962;-53
2022/05/29 10:47:51;;;;;;;;;;;15.60;99.60;;;;;;5042620;28;19925;-53
2022/05/29 10:50:23;;;;;;;;;;;15.30;98.60;;;;;;5046723;28;19917;-56
2022/05/29 10:52:54;;;;;;;;;;;15.00;99.20;;;;;;5043436;28;19913;-53
2022/05/29 10:55:38;;;;;;;;;;;15.10;98.30;;;;;;5042253;28;19909;-49
2022/05/29 10:58:10;;;;;;;;;;;15.50;99.10;;;;;;5043504;28;20019;-55
2022/05/29 11:00:41;;;;;;;;;;;16.00;98.20;;;;;;5049190;28;19908;-53
2022/05/29 11:03:19;;;;;;;;;;;16.70;96.60;;;;;;5044836;28;20035;-56
2022/05/29 11:05:47;;;;;;;;;;;16.40;95.80;;;;;;5042471;28;19916;-50
2022/05/29 11:08:15;;;;;;;;;;;16.50;95.90;;;;;;5043601;28;19948;-53
2022/05/29 11:10:47;;;;;;;;;;;16.50;96.20;;;;;;5043593;28;19917;-54
2022/05/29 11:13:16;;;;;;;;;;;16.50;97.40;;;;;;5043882;28;19937;-52
2022/05/29 11:15:44;;;;;;;;;;;16.80;94.00;;;;;;5042485;28;20057;-55
2022/05/29 11:18:20;;;;;;;;;;;16.80;94.10;;;;;;5043329;28;19935;-54
2022/05/29 11:20:59;;;;;;;;;;;17.40;93.40;;;;;;5041965;28;19909;-54
2022/05/29 11:23:34;;;;;;;;;;;17.50;93.00;;;;;;5040647;28;19931;-52
2022/05/29 11:26:07;;;;;;;;;;;17.30;94.60;;;;;;5042075;28;20256;-55
2022/05/29 11:28:50;;;;;;;;;;;16.40;93.60;;;;;;5042885;28;20010;-53
2022/05/29 11:31:45;;;;;;;;;;;16.20;95.90;;;;;;5045135;28;19916;-52
2022/05/29 11:34:29;;;;;;;;;;;16.50;94.80;;;;;;5059633;28;19920;-54
2022/05/29 11:36:57;;;;;;;;;;;16.60;94.30;;;;;;5043850;28;19916;-52
2022/05/29 11:39:29;;;;;;;;;;;16.60;93.00;;;;;;5045724;28;19915;-52
2022/05/29 11:42:16;;;;;;;;;;;16.40;94.90;;;;;;5062423;28;19944;-55
2022/05/29 11:45:01;;;;;;;;;;;16.30;96.00;;;;;;5062826;28;19912;-52
2022/05/29 11:53:14;;;;;;;;;;;16.60;93.30;;;;;;5052349;28;19954;-49
2022/05/29 11:55:41;;;;;;;;;;;16.90;92.70;;;;;;5052494;28;19905;-52
2022/05/29 11:58:15;;;;;;;;;;;16.90;92.60;;;;;;5060249;28;19912;-53
2022/05/29 12:00:44;;;;;;;;;;;16.90;93.00;;;;;;5093532;28;19950;-48
2022/05/29 12:03:13;;;;;;;;;;;16.40;94.00;;;;;;5081082;28;19912;-49
2022/05/29 12:05:44;;;;;;;;;;;16.30;92.40;;;;;;5073235;28;19904;-50
2022/05/29 12:08:25;;;;;;;;;;;16.50;91.90;;;;;;5072972;28;19959;-49
2022/05/29 12:10:55;;;;;;;;;;;16.40;92.60;;;;;;5091722;28;19992;-50
2022/05/29 12:13:22;;;;;;;;;;;16.40;93.50;;;;;;5093344;28;19904;-49
2022/05/29 12:15:53;;;;;;;;;;;16.50;92.40;;;;;;5093116;28;19904;-54
2022/05/29 12:18:20;;;;;;;;;;;16.20;92.10;;;;;;5091865;28;20475;-52
2022/05/29 12:20:55;;;;;;;;;;;16.50;92.70;;;;;;5073075;28;19912;-51
2022/05/29 12:23:27;;;;;;;;;;;16.40;90.40;;;;;;5072779;28;19916;-53
2022/05/29 12:25:55;;;;;;;;;;;16.40;91.30;;;;;;5072631;28;19904;-49
2022/05/29 12:28:39;;;;;;;;;;;16.40;90.70;;;;;;5072603;28;19900;-48
2022/05/29 12:31:06;;;;;;;;;;;16.10;91.00;;;;;;5092836;28;19919;-48
2022/05/29 12:33:32;;;;;;;;;;;16.00;89.80;;;;;;5093032;28;20335;-47
2022/05/29 12:36:10;;;;;;;;;;;15.60;89.50;;;;;;5092755;28;19965;-50
2022/05/29 12:38:43;;;;;;;;;;;15.70;90.90;;;;;;5091247;28;19996;-51
2022/05/29 12:41:28;;;;;;;;;;;15.70;90.70;;;;;;5071027;28;20716;-50
2022/05/29 12:44:32;;;;;;;;;;;15.30;92.80;;;;;;5072370;28;20355;-51
2022/05/29 12:46:58;;;;;;;;;;;15.00;90.20;;;;;;5089941;28;19949;-50
2022/05/29 12:49:28;;;;;;;;;;;14.90;91.50;;;;;;5089394;28;19908;-48
2022/05/29 12:52:12;;;;;;;;;;;14.60;91.60;;;;;;5070226;28;19905;-48
2022/05/29 12:54:56;;;;;;;;;;;14.50;92.10;;;;;;5050954;28;19944;-50
2022/05/29 12:57:29;;;;;;;;;;;14.60;91.70;;;;;;5069407;28;20002;-47
2022/05/29 13:00:01;;;;;;;;;;;14.70;92.40;;;;;;5088929;28;20359;-50
2022/05/29 13:02:32;;;;;;;;;;;14.40;93.50;;;;;;5043699;28;20241;-47
2022/05/29 13:05:06;;;;;;;;;;;14.50;92.90;;;;;;5058661;28;20348;-48
2022/05/29 13:07:50;;;;;;;;;;;14.50;93.00;;;;;;5046041;28;19915;-48
2022/05/29 13:10:18;;;;;;;;;;;14.50;93.30;;;;;;5049748;28;19916;-47
2022/05/29 13:12:44;;;;;;;;;;;14.50;93.50;;;;;;5040189;28;19917;-51
2022/05/29 13:15:11;;;;;;;;;;;14.50;95.30;;;;;;5040706;28;20049;-48
2022/05/29 13:17:38;;;;;;;;;;;14.50;94.80;;;;;;5041192;28;19919;-50
2022/05/29 13:20:03;;;;;;;;;;;14.50;94.70;;;;;;5048468;28;20263;-49
2022/05/29 13:22:48;;;;;;;;;;;14.50;95.00;;;;;;5040879;28;19912;-48
2022/05/29 13:25:14;;;;;;;;;;;14.50;96.00;;;;;;5041209;28;19908;-48
2022/05/29 13:27:39;;;;;;;;;;;14.20;95.90;;;;;;5041063;28;19912;-53
2022/05/29 13:30:07;;;;;;;;;;;13.60;94.70;;;;;;5043071;28;19962;-47
2022/05/29 13:32:33;;;;;;;;;;;13.50;96.70;;;;;;5039650;28;19915;-47
2022/05/29 13:35:02;;;;;;;;;;;13.40;97.30;;;;;;5041204;28;20320;-50
2022/05/29 13:37:47;;;;;;;;;;;13.30;98.40;;;;;;5042292;28;19912;-47
2022/05/29 13:40:31;;;;;;;;;;;13.20;99.00;;;;;;5041710;28;19909;-52
2022/05/29 13:43:15;;;;;;;;;;;12.80;99.50;;;;;;5040656;28;20384;-49
2022/05/29 13:45:43;;;;;;;;;;;12.80;99.90;;;;;;5040451;28;19915;-50
2022/05/29 13:48:24;;;;;;;;;;;12.80;99.90;;;;;;5041232;28;20352;-49
2022/05/29 13:50:56;;;;;;;;;;;12.70;99.90;;;;;;5042915;28;19915;-48
2022/05/29 13:53:21;;;;;;;;;;;12.70;99.90;;;;;;5040946;28;19912;-50
2022/05/29 13:56:03;;;;;;;;;;;12.60;99.90;;;;;;5040915;28;20044;-53
2022/05/29 14:04:06;;;;;;;;;;;12.40;99.90;;;;;;5040667;28;20007;-53
2022/05/29 14:06:39;;;;;;;;;;;12.40;99.90;;;;;;5041279;28;20221;-51
2022/05/29 14:09:07;;;;;;;;;;;12.50;99.90;;;;;;5040905;28;19913;-48
2022/05/29 14:11:44;;;;;;;;;;;12.40;99.90;;;;;;5040224;28;20333;-56
2022/05/29 14:14:28;;;;;;;;;;;12.40;99.90;;;;;;5040321;28;19908;-50
2022/05/29 14:16:54;;;;;;;;;;;12.60;99.90;;;;;;5041032;28;19931;-52
2022/05/29 14:19:23;;;;;;;;;;;12.40;99.90;;;;;;5044003;28;19916;-52
2022/05/29 14:21:49;;;;;;;;;;;12.30;99.90;;;;;;5044385;28;19954;-52
2022/05/29 14:24:18;;;;;;;;;;;12.20;99.90;;;;;;5044022;28;20299;-52
2022/05/29 14:26:50;;;;;;;;;;;12.20;99.90;;;;;;5044321;28;19913;-54
2022/05/29 14:29:39;;;;;;;;;;;12.10;99.90;;;;;;5044036;28;19999;-55
2022/05/29 14:32:13;;;;;;;;;;;12.10;99.90;;;;;;5051917;28;19909;-53
2022/05/29 14:34:45;;;;;;;;;;;12.10;99.90;;;;;;5043767;28;19913;-51
2022/05/29 14:37:29;;;;;;;;;;;12.20;99.90;;;;;;5043962;28;19919;-49
2022/05/29 14:39:54;;;;;;;;;;;12.20;99.90;;;;;;5043446;28;19908;-52
2022/05/29 14:42:31;;;;;;;;;;;12.20;99.90;;;;;;5043794;28;19915;-49
2022/05/29 14:44:59;;;;;;;;;;;12.40;99.90;;;;;;5043367;28;20399;-52
2022/05/29 14:47:36;;;;;;;;;;;12.40;99.90;;;;;;5043972;28;19909;-54
2022/05/29 14:50:07;;;;;;;;;;;12.30;99.90;;;;;;5045703;28;19991;-54
2022/05/29 14:52:41;;;;;;;;;;;12.30;99.90;;;;;;5043818;28;19916;-54
2022/05/29 14:55:10;;;;;;;;;;;12.30;99.90;;;;;;5076710;28;19958;-53
2022/05/29 14:57:44;;;;;;;;;;;12.40;99.90;;;;;;5044675;28;19927;-55
2022/05/29 15:00:27;;;;;;;;;;;12.20;99.90;;;;;;5043231;28;19908;-55
2022/05/29 15:02:54;;;;;;;;;;;12.20;99.90;;;;;;5047171;28;19944;-52
2022/05/29 15:05:21;;;;;;;;;;;12.20;99.90;;;;;;5042688;28;20061;-53
2022/05/29 15:10:45;;;;;;;;;;;12.00;99.90;;;;;;5043012;28;19969;-55
2022/05/29 15:13:15;;;;;;;;;;;12.10;99.90;;;;;;5041893;28;19915;-51
2022/05/29 15:15:54;;;;;;;;;;;12.10;99.90;;;;;;5041186;28;19925;-51